METAR Data
IDs: Format: Raw Decoded Include TAF

Data at: 0004 UTC 26 Oct 2021

KEBG 252355Z AUTO 08009KT 10SM CLR 29/25 A2989 RMK AO2 T02930248 10326 20290 TSNO
KEBG 252335Z AUTO 13003KT 10SM CLR 29/24 A2988 RMK AO2 T02940237 TSNO
KEBG 252315Z AUTO 13005KT 10SM CLR 30/24 A2988 RMK AO2 T03010237 TSNO
KEBG 252255Z AUTO 12007KT 10SM CLR 32/23 A2987 RMK AO2 T03150231 TSNO
KEBG 252235Z AUTO 13005KT 10SM CLR 32/23 A2987 RMK AO2 T03200233 TSNO
KEBG 252215Z AUTO 13004KT 10SM CLR 33/23 A2987 RMK AO2 T03250229 TSNO
KEBG 252155Z AUTO 13007KT 10SM CLR 32/24 A2987 RMK AO2 T03230235 TSNO
KEBG 252135Z AUTO 12004KT 10SM CLR 32/23 A2987 RMK AO2 T03210234 TSNO
KEBG 252115Z AUTO 16003KT 10SM CLR 32/23 A2987 RMK AO2 T03200232 TSNO
KEBG 252055Z AUTO 13006KT 10SM CLR 32/23 A2988 RMK AO2 T03190231 TSNO
KEBG 252035Z AUTO 13006KT 10SM CLR 32/23 A2988 RMK AO2 T03190231 TSNO
KEBG 252015Z AUTO 16007KT 10SM SCT036 32/24 A2988 RMK AO2 T03160235 TSNO
KEBG 251955Z AUTO 12004KT 10SM SCT036 31/24 A2989 RMK AO2 T03120236 TSNO
KEBG 251935Z AUTO 13004KT 10SM SCT035 31/24 A2990 RMK AO2 T03110236 TSNO
KEBG 251915Z AUTO 15003KT 10SM BKN035 31/24 A2991 RMK AO2 T03090236 TSNO
KEBG 251855Z AUTO 16004KT 10SM BKN033 31/24 A2992 RMK AO2 T03090236 TSNO
KEBG 251835Z AUTO 17003KT 10SM OVC031 31/24 A2993 RMK AO2 T03090235 TSNO
KEBG 251815Z AUTO 21005KT 10SM BKN029 31/24 A2994 RMK AO2 T03080239 TSNO
KEBG 251755Z AUTO 19005KT 10SM BKN027 31/24 A2994 RMK AO2 T03060241 10308 20225 TSNO
KEBG 251735Z AUTO 20007KT 10SM SCT020 BKN028 30/24 A2995 RMK AO2 T02990244 TSNO
KEBG 251715Z AUTO 16004KT 10SM BKN020 BKN028 29/25 A2996 RMK AO2 T02920247 TSNO
KEBG 251655Z AUTO 00000KT 10SM OVC018 28/25 A2997 RMK AO2 T02800246 TSNO
KEBG 251635Z AUTO 00000KT 10SM OVC015 28/25 A2997 RMK AO2 T02770250 TSNO
KEBG 251615Z AUTO 00000KT 10SM OVC011 27/25 A2997 RMK AO2 T02670250 TSNO
KEBG 251555Z AUTO 00000KT 10SM BKN009 OVC018 26/25 A2997 RMK AO2 T02620252 TSNO
KEBG 251535Z AUTO 16004KT 10SM BKN005 BKN011 OVC020 26/25 A2997 RMK AO2 T02550253 TSNO
KEBG 251515Z AUTO 00000KT 5SM BR OVC003 25/25 A2997 RMK AO2 T02500250 TSNO
KEBG 251455Z AUTO 00000KT 5SM BR OVC003 24/24 A2996 RMK AO2 T02440244 TSNO
KEBG 251435Z AUTO 00000KT 3SM BR OVC003 24/24 A2996 RMK AO2 T02400240 TSNO
KEBG 251415Z AUTO 00000KT 1/2SM FG OVC003 24/24 A2995 RMK AO2 T02350235 TSNO
KEBG 251355Z AUTO 00000KT 1/2SM FG OVC003 23/23 A2995 RMK AO2 T02320232 TSNO
KEBG 251335Z AUTO 00000KT 1/2SM FG OVC003 23/23 A2994 RMK AO2 T02280228 TSNO
KEBG 251315Z AUTO 15003KT 1/4SM FG OVC003 23/23 A2993 RMK AO2 T02260226 TSNO
KEBG 251255Z AUTO 00000KT 1/4SM FG OVC003 23/23 A2992 RMK AO2 T02260226 TSNO
KEBG 251235Z AUTO 00000KT 1/4SM FG OVC003 23/23 A2991 RMK AO2 T02290229 TSNO
KEBG 251215Z AUTO 00000KT 4SM BR OVC003 23/23 A2991 RMK AO2 T02310231 TSNO
KEBG 251155Z AUTO 00000KT 4SM BR BKN003 OVC010 24/24 A2990 RMK AO2 7//// T02350235 10245 20225 TSNO
KEBG 251135Z AUTO 06003KT 5SM BR OVC005 24/24 A2990 RMK AO2 T02350235 TSNO
KEBG 251115Z AUTO 00000KT 3SM BR OVC003 24/24 A2990 RMK AO2 T02360236 TSNO
KEBG 251055Z AUTO 04003KT 1/2SM FG OVC003 24/24 A2990 RMK AO2 T02360236 TSNO
KEBG 251035Z AUTO 00000KT 1/4SM FG OVC003 23/23 A2989 RMK AO2 T02320232 TSNO
KEBG 251015Z AUTO 00000KT 1/4SM FG OVC003 23/23 A2988 RMK AO2 T02300230 TSNO
KEBG 250955Z AUTO 11003KT 1/2SM FG OVC003 23/23 A2989 RMK AO2 T02300230 TSNO
KEBG 250935Z AUTO 00000KT 1/2SM FG OVC003 23/23 A2989 RMK AO2 T02310231 TSNO
KEBG 250915Z AUTO 00000KT 1/4SM FG OVC003 23/23 A2989 RMK AO2 T02290228 TSNO
KEBG 250855Z AUTO 13003KT 1/4SM FG OVC003 23/23 A2989 RMK AO2 T02280227 TSNO
KEBG 250835Z AUTO 00000KT 3SM BR OVC003 23/23 A2988 RMK AO2 T02260225 TSNO
KEBG 250815Z AUTO 00000KT 4SM BR OVC003 23/23 A2989 RMK AO2 T02290227 TSNO
KEBG 250755Z AUTO 00000KT 4SM BR BKN003 BKN014 23/23 A2989 RMK AO2 T02280226 TSNO
KEBG 250735Z AUTO 12003KT 5SM BR CLR 23/23 A2989 RMK AO2 T02280226 TSNO
KEBG 250715Z AUTO 12003KT 7SM CLR 23/23 A2989 RMK AO2 T02340231 TSNO
KEBG 250655Z AUTO 12003KT 7SM CLR 24/23 A2989 RMK AO2 T02370234 TSNO
KEBG 250635Z AUTO 15004KT 10SM CLR 24/24 A2989 RMK AO2 T02420238 TSNO
KEBG 250615Z AUTO 16006KT 10SM CLR 25/24 A2988 RMK AO2 T02450240 TSNO
KEBG 250555Z AUTO 16007KT 10SM CLR 25/24 A2989 RMK AO2 T02450239 10294 20241 TSNO
KEBG 250535Z AUTO 16006KT 10SM CLR 24/24 A2989 RMK AO2 T02430237 TSNO
KEBG 250515Z AUTO 16006KT 10SM CLR 24/24 A2989 RMK AO2 T02430235 TSNO
KEBG 250455Z AUTO 17006KT 10SM CLR 24/24 A2988 RMK AO2 T02430236 TSNO
KEBG 250435Z AUTO 16005KT 10SM CLR 24/23 A2988 RMK AO2 T02410233 TSNO
KEBG 250415Z AUTO 16005KT 10SM CLR 24/23 A2988 RMK AO2 T02420234 TSNO
KEBG 250355Z AUTO 15006KT 10SM CLR 25/23 A2988 RMK AO2 T02450234 TSNO
KEBG 250335Z AUTO 14003KT 10SM CLR 25/24 A2988 RMK AO2 T02490235 TSNO
KEBG 250315Z AUTO 14005KT 10SM CLR 25/24 A2987 RMK AO2 T02520235 TSNO
KEBG 250255Z AUTO 14006KT 10SM CLR 25/24 A2987 RMK AO2 T02540235 TSNO
KEBG 250235Z AUTO 13006KT 10SM CLR 26/24 A2986 RMK AO2 T02560235 TSNO
KEBG 250215Z AUTO 13006KT 10SM CLR 26/23 A2985 RMK AO2 T02590234 TSNO
KEBG 250155Z AUTO 14005KT 10SM CLR 26/23 A2984 RMK AO2 T02600233 TSNO
KEBG 250135Z AUTO 13007KT 10SM CLR 27/23 A2983 RMK AO2 T02660231 TSNO
KEBG 250115Z AUTO 14006KT 10SM CLR 27/23 A2982 RMK AO2 T02690227 TSNO
KEBG 250055Z AUTO 15006KT 10SM CLR 28/23 A2981 RMK AO2 T02750225 TSNO
KEBG 250035Z AUTO 15006KT 10SM CLR 28/23 A2980 RMK AO2 T02800226 TSNO
KEBG 250015Z AUTO 16006KT 10SM CLR 29/23 A2980 RMK AO2 T02900228 TSNO
KEBG 242355Z AUTO 14006KT 10SM CLR 30/23 A2979 RMK AO2 T02950232 10334 20295 TSNO
KEBG 242335Z AUTO 13008KT 10SM CLR 31/23 A2978 RMK AO2 T03070232 TSNO
KEBG 242315Z AUTO 14009KT 10SM SCT045 31/24 A2978 RMK AO2 T03140235 TSNO
KEBG 242255Z AUTO 13011KT 10SM SCT045 32/23 A2978 RMK AO2 T03200233 TSNO
KEBG 242235Z AUTO 13008G15KT 10SM SCT047 33/23 A2977 RMK AO2 T03270234 TSNO
KEBG 242215Z AUTO 19008KT 10SM CLR 33/23 A2978 RMK AO2 T03300225 TSNO
KEBG 242155Z AUTO 16005KT 10SM CLR 33/23 A2978 RMK AO2 T03330226 TSNO
KEBG 242135Z AUTO 16006KT 10SM CLR 33/22 A2978 RMK AO2 T03320222 TSNO
KEBG 242115Z AUTO 14007KT 10SM CLR 33/22 A2978 RMK AO2 T03320221 TSNO
KEBG 242055Z AUTO 13009KT 10SM CLR 33/23 A2978 RMK AO2 T03310229 TSNO
KEBG 242035Z AUTO 14011G14KT 10SM SCT042 33/23 A2978 RMK AO2 T03280228 TSNO
KEBG 242015Z AUTO 15008KT 10SM SCT042 33/23 A2978 RMK AO2 T03270229 TSNO
KEBG 241955Z AUTO 13007KT 050V190 10SM SCT042 32/23 A2978 RMK AO2 T03170230 TSNO
KEBG 241935Z AUTO 15010KT 10SM CLR 33/23 A2979 RMK AO2 T03250230 TSNO
KEBG 241915Z AUTO 17005KT 10SM SCT039 32/23 A2980 RMK AO2 T03240231 TSNO
KEBG 241855Z AUTO 14009KT 10SM CLR 32/23 A2980 RMK AO2 T03210230 TSNO
KEBG 241835Z AUTO 16007KT 10SM CLR 32/23 A2981 RMK AO2 T03190229 TSNO
KEBG 241815Z AUTO 17009KT 10SM CLR 32/23 A2981 RMK AO2 T03150229 TSNO
KEBG 241755Z AUTO 15007KT 110V180 10SM CLR 31/23 A2982 RMK AO2 6//// T03120229 TSNO
KEBG 241735Z AUTO 18007KT 10SM SCT033 31/23 A2983 RMK AO2 T03120229 TSNO
KEBG 241715Z AUTO 15009KT 10SM SCT030 31/24 A2983 RMK AO2 T03080235 TSNO